createdAt,value
2023-01-13T00:00:09.123Z,11.82
2023-01-13T00:00:21.543Z,11.71
2023-01-13T00:00:33.635Z,11.68
2023-01-13T00:00:45.872Z,11.74
2023-01-13T00:00:58.192Z,11.68
2023-01-13T00:01:15.945Z,11.68
2023-01-13T00:01:28.915Z,11.68
2023-01-13T00:01:40.921Z,11.64
2023-01-13T00:01:52.800Z,11.63
2023-01-13T00:02:04.796Z,11.64
2023-01-13T00:02:17.167Z,11.58
2023-01-13T00:02:29.890Z,11.61
2023-01-13T00:02:41.960Z,11.55
2023-01-13T00:02:53.879Z,11.62
2023-01-13T00:03:05.987Z,11.60
2023-01-13T00:03:17.954Z,11.65
2023-01-13T00:03:29.975Z,11.66
2023-01-13T00:03:42.025Z,11.72
2023-01-13T00:03:53.922Z,11.75
2023-01-13T00:04:05.840Z,11.78
2023-01-13T00:04:17.775Z,11.85
2023-01-13T00:04:29.756Z,11.84
2023-01-13T00:04:41.680Z,11.86
2023-01-13T00:04:53.702Z,11.82
2023-01-13T00:05:06.066Z,11.77
2023-01-13T00:05:18.262Z,11.67
2023-01-13T00:05:30.325Z,11.71
2023-01-13T00:05:42.215Z,11.73
2023-01-13T00:05:54.154Z,11.70
2023-01-13T00:06:08.328Z,11.67
2023-01-13T00:06:25.655Z,11.69
2023-01-13T00:06:37.528Z,11.79
2023-01-13T00:06:49.405Z,11.70
2023-01-13T00:07:01.353Z,11.71
2023-01-13T00:07:13.244Z,11.76
2023-01-13T00:07:25.126Z,11.79
2023-01-13T00:07:39.983Z,11.79
2023-01-13T00:07:52.180Z,11.80
2023-01-13T00:08:06.235Z,11.78
2023-01-13T00:08:18.124Z,11.78
2023-01-13T00:08:30.296Z,11.75
2023-01-13T00:08:42.480Z,11.73
2023-01-13T00:08:54.965Z,11.72
2023-01-13T00:09:06.895Z,11.80
2023-01-13T00:09:18.803Z,11.77
2023-01-13T00:09:33.004Z,11.77
2023-01-13T00:09:44.953Z,11.79
2023-01-13T00:09:56.853Z,11.79
2023-01-13T00:10:10.760Z,11.64
2023-01-13T00:10:22.637Z,11.67
2023-01-13T00:10:35.817Z,11.72
2023-01-13T00:10:48.296Z,11.71
2023-01-13T00:11:00.279Z,11.79
2023-01-13T00:11:12.315Z,11.77
2023-01-13T00:11:26.200Z,11.80
2023-01-13T00:11:38.127Z,11.80
2023-01-13T00:11:49.991Z,11.81
2023-01-13T00:12:01.949Z,11.76
2023-01-13T00:12:13.906Z,11.78
2023-01-13T00:12:25.884Z,11.80
2023-01-13T00:12:42.010Z,11.81
2023-01-13T00:12:53.993Z,11.81
2023-01-13T00:13:05.960Z,11.82
2023-01-13T00:13:26.362Z,11.80
2023-01-13T00:13:38.750Z,11.78
2023-01-13T00:13:50.659Z,11.74
2023-01-13T00:14:02.594Z,11.72
2023-01-13T00:14:14.514Z,11.79
2023-01-13T00:15:06.097Z,11.76
2023-01-13T00:15:21.469Z,11.73
2023-01-13T00:16:05.296Z,11.80
2023-01-13T00:16:49.707Z,11.87
2023-01-13T00:17:03.236Z,11.87
2023-01-13T00:17:15.145Z,11.82
2023-01-13T00:17:27.041Z,11.77
2023-01-13T00:17:39.488Z,11.76
2023-01-13T00:17:51.643Z,11.76
2023-01-13T00:18:03.634Z,11.79
2023-01-13T00:18:15.605Z,11.78
2023-01-13T00:18:28.379Z,11.75
2023-01-13T00:18:40.259Z,11.80
2023-01-13T00:18:52.176Z,11.84
2023-01-13T00:19:04.065Z,11.87
2023-01-13T00:19:15.965Z,11.82
2023-01-13T00:19:28.310Z,11.77
2023-01-13T00:19:40.229Z,11.80
2023-01-13T00:19:52.217Z,11.81
2023-01-13T00:20:04.970Z,11.70
2023-01-13T00:20:17.487Z,11.65
2023-01-13T00:20:29.431Z,11.66
2023-01-13T00:20:41.348Z,11.63
2023-01-13T00:21:00.958Z,11.64
2023-01-13T00:21:21.570Z,11.58
2023-01-13T00:21:33.546Z,11.65
2023-01-13T00:21:45.413Z,11.66
2023-01-13T00:21:57.395Z,11.58
2023-01-13T00:22:09.297Z,11.65
2023-01-13T00:22:21.224Z,11.57
2023-01-13T00:22:34.938Z,11.59
2023-01-13T00:22:52.756Z,11.62
2023-01-13T00:23:04.684Z,11.59
2023-01-13T00:23:16.623Z,11.51
2023-01-13T00:23:31.070Z,11.47
2023-01-13T00:23:43.691Z,11.47
2023-01-13T00:23:55.879Z,11.56
2023-01-13T00:24:07.843Z,11.66
2023-01-13T00:24:19.769Z,11.62
2023-01-13T00:24:31.654Z,11.59
2023-01-13T00:24:43.610Z,11.56
2023-01-13T00:24:58.093Z,11.56
2023-01-13T00:25:10.079Z,11.53
2023-01-13T00:25:22.242Z,11.53
2023-01-13T00:25:34.134Z,11.54
2023-01-13T00:25:45.999Z,11.64
2023-01-13T00:25:59.491Z,11.69
2023-01-13T00:26:20.188Z,11.63
2023-01-13T00:26:35.661Z,11.62
2023-01-13T00:26:47.613Z,11.60
2023-01-13T00:26:59.502Z,11.59
2023-01-13T00:27:11.407Z,11.64
2023-01-13T00:27:24.898Z,11.63
2023-01-13T00:27:36.996Z,11.66
2023-01-13T00:27:48.922Z,11.56
2023-01-13T00:28:00.830Z,11.55
2023-01-13T00:28:12.723Z,11.60
2023-01-13T00:28:25.173Z,11.65
2023-01-13T00:28:37.216Z,11.70
2023-01-13T00:28:49.983Z,11.70
2023-01-13T00:29:02.245Z,11.71
2023-01-13T00:29:14.259Z,11.65
2023-01-13T00:29:26.262Z,11.74
2023-01-13T00:29:38.146Z,11.73
2023-01-13T00:29:50.036Z,11.73
2023-01-13T00:30:02.589Z,11.59
2023-01-13T00:30:14.815Z,11.58
2023-01-13T00:30:26.740Z,11.62
2023-01-13T00:30:38.609Z,11.52
2023-01-13T00:30:50.816Z,11.54
2023-01-13T00:31:21.167Z,11.56
2023-01-13T00:31:33.329Z,11.53
2023-01-13T00:31:45.396Z,11.51
2023-01-13T00:31:58.101Z,11.50
2023-01-13T00:32:10.050Z,11.43
2023-01-13T00:32:21.971Z,11.52
2023-01-13T00:32:33.948Z,11.47
2023-01-13T00:32:45.854Z,11.48
2023-01-13T00:32:57.789Z,11.50
2023-01-13T00:33:09.707Z,11.50
2023-01-13T00:33:21.766Z,11.51
2023-01-13T00:33:34.082Z,11.57
2023-01-13T00:33:46.544Z,11.59
2023-01-13T00:34:00.420Z,11.58
2023-01-13T00:34:12.597Z,11.58
2023-01-13T00:34:24.606Z,11.57
2023-01-13T00:34:36.586Z,11.62
2023-01-13T00:34:48.489Z,11.63
2023-01-13T00:35:00.460Z,11.53
2023-01-13T00:35:12.459Z,11.60
2023-01-13T00:35:24.405Z,11.58
2023-01-13T00:35:36.408Z,11.64
2023-01-13T00:35:58.647Z,11.55
2023-01-13T00:36:14.771Z,11.58
2023-01-13T00:36:27.816Z,11.56
2023-01-13T00:36:40.104Z,11.55
2023-01-13T00:36:52.175Z,11.55
2023-01-13T00:37:04.160Z,11.58
2023-01-13T00:37:16.294Z,11.55
2023-01-13T00:37:28.310Z,11.54
2023-01-13T00:37:41.066Z,11.49
2023-01-13T00:37:52.984Z,11.44
2023-01-13T00:38:04.880Z,11.44
2023-01-13T00:38:16.776Z,11.39
2023-01-13T00:38:31.312Z,11.39
2023-01-13T00:38:43.987Z,11.37
2023-01-13T00:38:56.082Z,11.40
2023-01-13T00:39:08.903Z,11.42
2023-01-13T00:39:23.384Z,11.45
2023-01-13T00:39:35.496Z,11.34
2023-01-13T00:39:47.706Z,11.37
2023-01-13T00:40:00.473Z,11.39
2023-01-13T00:40:12.613Z,11.39
2023-01-13T00:40:24.494Z,11.36
2023-01-13T00:40:36.839Z,11.37
2023-01-13T00:41:02.456Z,11.48
2023-01-13T00:41:19.877Z,11.49
2023-01-13T00:41:51.818Z,11.47
2023-01-13T00:42:22.292Z,11.42
2023-01-13T00:42:52.664Z,11.54
2023-01-13T00:43:23.146Z,11.41
2023-01-13T00:43:36.436Z,11.38
2023-01-13T00:43:48.844Z,11.38
2023-01-13T00:44:00.958Z,11.37
2023-01-13T00:44:12.857Z,11.40
2023-01-13T00:44:24.799Z,11.39
2023-01-13T00:44:36.817Z,11.39
2023-01-13T00:44:48.730Z,11.42
2023-01-13T00:45:00.696Z,11.44
2023-01-13T00:45:12.600Z,11.41
2023-01-13T00:45:24.705Z,11.50
2023-01-13T00:45:38.458Z,11.49
2023-01-13T00:45:53.219Z,11.43
2023-01-13T00:46:07.835Z,11.50
2023-01-13T00:46:21.493Z,11.52
2023-01-13T00:46:33.636Z,11.50
2023-01-13T00:46:45.596Z,11.57
2023-01-13T00:46:57.548Z,11.65
2023-01-13T00:47:09.607Z,11.66
2023-01-13T00:47:23.208Z,11.65
2023-01-13T00:47:35.144Z,11.61
2023-01-13T00:47:47.181Z,11.51
2023-01-13T00:47:59.291Z,11.51
2023-01-13T00:48:11.207Z,11.42
2023-01-13T00:48:24.692Z,11.38
2023-01-13T00:48:37.802Z,11.40
2023-01-13T00:48:49.787Z,11.39
2023-01-13T00:49:01.723Z,11.45
2023-01-13T00:49:13.646Z,11.51
2023-01-13T00:49:25.547Z,11.53
2023-01-13T00:49:37.463Z,11.49
2023-01-13T00:49:50.077Z,11.57
2023-01-13T00:50:02.056Z,11.48
2023-01-13T00:50:14.021Z,11.50
2023-01-13T00:50:26.880Z,11.52
2023-01-13T00:50:38.760Z,11.55
2023-01-13T00:51:09.999Z,11.64
2023-01-13T00:51:22.045Z,11.52
2023-01-13T00:51:33.984Z,11.46
2023-01-13T00:51:46.015Z,11.42
2023-01-13T00:51:57.973Z,11.42
2023-01-13T00:52:10.131Z,11.48
2023-01-13T00:52:22.211Z,11.53
2023-01-13T00:52:34.333Z,11.55
2023-01-13T00:52:46.537Z,11.56
2023-01-13T00:53:02.108Z,11.61
2023-01-13T00:53:14.752Z,11.55
2023-01-13T00:53:28.704Z,11.50
2023-01-13T00:53:43.198Z,11.44
2023-01-13T00:53:55.096Z,11.40
2023-01-13T00:54:07.750Z,11.47
2023-01-13T00:54:19.634Z,11.49
2023-01-13T00:54:31.597Z,11.53
2023-01-13T00:54:43.522Z,11.49
2023-01-13T00:54:55.474Z,11.50
2023-01-13T00:55:07.735Z,11.51
2023-01-13T00:55:19.653Z,11.52
2023-01-13T00:55:35.462Z,11.50
2023-01-13T00:55:47.371Z,11.51
2023-01-13T00:56:05.475Z,11.55
2023-01-13T00:56:30.565Z,11.59
2023-01-13T00:56:50.782Z,11.60
2023-01-13T00:57:04.560Z,11.62
2023-01-13T00:57:16.522Z,11.62
2023-01-13T00:57:28.862Z,11.58
2023-01-13T00:57:40.746Z,11.66
2023-01-13T00:57:52.634Z,11.71
2023-01-13T00:58:04.608Z,11.68
2023-01-13T00:58:16.523Z,11.72
2023-01-13T00:58:30.904Z,11.65
2023-01-13T00:58:44.236Z,11.63
2023-01-13T00:58:58.619Z,11.67
2023-01-13T00:59:12.645Z,11.67
2023-01-13T00:59:24.739Z,11.60
2023-01-13T00:59:36.621Z,11.63
2023-01-13T00:59:49.609Z,11.55
2023-01-13T01:00:01.872Z,11.54
2023-01-13T01:00:14.548Z,11.53
2023-01-13T01:00:26.419Z,11.56
2023-01-13T01:00:38.822Z,11.58
2023-01-13T01:00:50.782Z,11.50
2023-01-13T01:01:05.864Z,11.59
2023-01-13T01:01:22.135Z,11.70
2023-01-13T01:01:34.355Z,11.67
2023-01-13T01:01:46.589Z,11.72
2023-01-13T01:01:59.024Z,11.76
2023-01-13T01:02:11.300Z,11.79
2023-01-13T01:02:23.367Z,11.76
2023-01-13T01:02:35.411Z,11.78
2023-01-13T01:02:47.424Z,11.67
2023-01-13T01:02:59.413Z,11.70
2023-01-13T01:03:12.284Z,11.60
2023-01-13T01:03:24.301Z,11.70
2023-01-13T01:03:36.911Z,11.69
2023-01-13T01:03:50.295Z,11.67
2023-01-13T01:04:02.167Z,11.64
2023-01-13T01:04:14.061Z,11.67
2023-01-13T01:04:26.271Z,11.73
2023-01-13T01:04:38.291Z,11.76
2023-01-13T01:04:50.253Z,11.72
2023-01-13T01:05:02.536Z,11.67
2023-01-13T01:05:27.476Z,11.67
2023-01-13T01:05:39.807Z,11.55
2023-01-13T01:05:51.674Z,11.67
2023-01-13T01:06:06.268Z,11.73
2023-01-13T01:06:21.003Z,11.70
2023-01-13T01:06:32.988Z,11.72
2023-01-13T01:06:44.919Z,11.70
2023-01-13T01:06:56.800Z,11.68
2023-01-13T01:07:08.786Z,11.67
2023-01-13T01:07:20.675Z,11.65
2023-01-13T01:07:32.561Z,11.66
2023-01-13T01:07:44.443Z,11.63
2023-01-13T01:07:56.333Z,11.64
2023-01-13T01:08:08.217Z,11.62
2023-01-13T01:08:20.114Z,11.62
2023-01-13T01:08:32.132Z,11.55
2023-01-13T01:08:45.141Z,11.57
2023-01-13T01:08:57.339Z,11.58
2023-01-13T01:09:13.090Z,11.68
2023-01-13T01:09:32.399Z,11.75
2023-01-13T01:09:44.312Z,11.69
2023-01-13T01:09:56.191Z,11.65
2023-01-13T01:10:08.920Z,11.66
2023-01-13T01:10:21.001Z,11.64
2023-01-13T01:10:32.929Z,11.66
2023-01-13T01:10:44.862Z,11.64
2023-01-13T01:11:04.644Z,11.59
2023-01-13T01:11:19.595Z,11.60
2023-01-13T01:11:33.370Z,11.55
2023-01-13T01:11:45.291Z,11.64
2023-01-13T01:11:57.183Z,11.68
2023-01-13T01:12:09.064Z,11.58
2023-01-13T01:12:20.976Z,11.54
2023-01-13T01:12:37.059Z,11.59
2023-01-13T01:12:50.787Z,11.58
2023-01-13T01:13:02.702Z,11.53
2023-01-13T01:13:17.248Z,11.52
2023-01-13T01:13:29.297Z,11.55
2023-01-13T01:13:41.959Z,11.54
2023-01-13T01:13:55.813Z,11.59
2023-01-13T01:14:11.361Z,11.65
2023-01-13T01:14:23.325Z,11.71
2023-01-13T01:14:35.341Z,11.69
2023-01-13T01:14:47.321Z,11.67
2023-01-13T01:14:59.222Z,11.65
2023-01-13T01:15:11.528Z,11.56
2023-01-13T01:15:23.594Z,11.49
2023-01-13T01:15:40.072Z,11.47
2023-01-13T01:15:52.013Z,11.47
2023-01-13T01:16:12.713Z,11.49
2023-01-13T01:16:27.035Z,11.55
2023-01-13T01:16:40.487Z,11.49
2023-01-13T01:16:53.223Z,11.51
2023-01-13T01:17:05.100Z,11.50
2023-01-13T01:17:17.246Z,11.50
2023-01-13T01:17:29.274Z,11.50
2023-01-13T01:17:41.309Z,11.51
2023-01-13T01:17:53.338Z,11.46
2023-01-13T01:18:05.417Z,11.45
2023-01-13T01:18:17.462Z,11.44
2023-01-13T01:18:29.513Z,11.39
2023-01-13T01:18:45.327Z,11.39
2023-01-13T01:18:57.917Z,11.47
2023-01-13T01:19:10.483Z,11.49
2023-01-13T01:19:22.865Z,11.49
2023-01-13T01:19:37.457Z,11.46
2023-01-13T01:19:50.218Z,11.51
2023-01-13T01:20:03.742Z,11.56
2023-01-13T01:20:16.079Z,11.54
2023-01-13T01:20:28.202Z,11.49
2023-01-13T01:20:40.281Z,11.52
2023-01-13T01:20:52.285Z,11.58
2023-01-13T01:21:05.405Z,11.51
2023-01-13T01:21:18.294Z,11.50
2023-01-13T01:21:30.583Z,11.49
2023-01-13T01:21:45.399Z,11.50
2023-01-13T01:21:57.420Z,11.42
2023-01-13T01:22:09.511Z,11.39
2023-01-13T01:22:21.580Z,11.34
2023-01-13T01:22:33.660Z,11.37
2023-01-13T01:22:45.680Z,11.46
2023-01-13T01:22:57.701Z,11.48
2023-01-13T01:23:09.736Z,11.43
2023-01-13T01:23:21.762Z,11.47
2023-01-13T01:23:35.059Z,11.46
2023-01-13T01:23:47.178Z,11.43
2023-01-13T01:24:01.237Z,11.34
2023-01-13T01:24:16.673Z,11.34
2023-01-13T01:24:28.729Z,11.42
2023-01-13T01:24:40.775Z,11.42
2023-01-13T01:24:52.856Z,11.45
2023-01-13T01:25:05.465Z,11.55
2023-01-13T01:25:17.481Z,11.53
2023-01-13T01:25:29.528Z,11.45
2023-01-13T01:25:41.549Z,11.43
2023-01-13T01:25:53.675Z,11.43
2023-01-13T01:26:08.927Z,11.42
2023-01-13T01:26:23.830Z,11.39
2023-01-13T01:26:35.925Z,11.39
2023-01-13T01:26:47.962Z,11.34
2023-01-13T01:27:00.020Z,11.34
2023-01-13T01:27:12.042Z,11.40
2023-01-13T01:27:24.125Z,11.41
2023-01-13T01:27:36.147Z,11.39
2023-01-13T01:27:48.194Z,11.48
2023-01-13T01:28:00.585Z,11.46
2023-01-13T01:28:12.622Z,11.51
2023-01-13T01:28:24.662Z,11.46
2023-01-13T01:28:36.674Z,11.47
2023-01-13T01:28:49.208Z,11.51
2023-01-13T01:29:02.182Z,11.46
2023-01-13T01:29:17.902Z,11.46
2023-01-13T01:29:29.876Z,11.44
2023-01-13T01:29:41.744Z,11.46
2023-01-13T01:29:56.720Z,11.38
2023-01-13T01:30:09.137Z,11.46
2023-01-13T01:30:21.029Z,11.44
2023-01-13T01:30:33.028Z,11.46
2023-01-13T01:30:44.960Z,11.46
2023-01-13T01:30:58.429Z,11.49
2023-01-13T01:31:14.341Z,11.43
2023-01-13T01:31:32.795Z,11.45
2023-01-13T01:31:44.970Z,11.47
2023-01-13T01:31:58.261Z,11.42
2023-01-13T01:32:10.121Z,11.30
2023-01-13T01:32:21.988Z,11.30
2023-01-13T01:32:34.856Z,11.22
2023-01-13T01:32:46.731Z,11.24
2023-01-13T01:32:58.602Z,11.19
2023-01-13T01:33:10.474Z,11.12
2023-01-13T01:33:22.381Z,11.06
2023-01-13T01:33:34.323Z,11.07
2023-01-13T01:33:47.679Z,11.04
2023-01-13T01:34:01.513Z,11.02
2023-01-13T01:34:13.896Z,11.04
2023-01-13T01:34:25.868Z,11.01
2023-01-13T01:34:39.113Z,10.98
2023-01-13T01:34:51.847Z,10.96
2023-01-13T01:35:04.787Z,10.99
2023-01-13T01:35:16.935Z,10.97
2023-01-13T01:35:28.836Z,11.03
2023-01-13T01:35:41.187Z,11.03
2023-01-13T01:35:54.636Z,11.01
2023-01-13T01:36:07.621Z,10.96
2023-01-13T01:36:21.154Z,10.92
2023-01-13T01:36:34.820Z,10.92
2023-01-13T01:36:46.847Z,10.91
2023-01-13T01:36:58.868Z,10.87
2023-01-13T01:37:10.787Z,10.86
2023-01-13T01:37:22.664Z,10.87
2023-01-13T01:37:34.612Z,10.88
2023-01-13T01:37:46.797Z,10.91
2023-01-13T01:37:58.871Z,10.92
2023-01-13T01:38:10.885Z,10.87
2023-01-13T01:38:23.380Z,10.86
2023-01-13T01:38:35.451Z,10.87
2023-01-13T01:38:48.779Z,10.84
2023-01-13T01:39:00.890Z,10.84
2023-01-13T01:39:12.879Z,10.91
2023-01-13T01:39:24.842Z,10.95
2023-01-13T01:39:36.771Z,10.90
2023-01-13T01:39:48.946Z,10.92
2023-01-13T01:40:00.969Z,10.89
2023-01-13T01:40:13.221Z,10.88
2023-01-13T01:40:27.468Z,10.92
2023-01-13T01:40:39.401Z,10.92
2023-01-13T01:40:51.473Z,10.86
2023-01-13T01:41:03.462Z,10.89
2023-01-13T01:41:20.863Z,10.77
2023-01-13T01:41:34.793Z,10.74
2023-01-13T01:42:06.666Z,10.75
2023-01-13T01:42:37.524Z,10.69
2023-01-13T01:43:07.812Z,10.68
2023-01-13T01:43:41.174Z,10.76
2023-01-13T01:44:19.134Z,10.73
2023-01-13T01:44:43.129Z,10.75
2023-01-13T01:45:13.554Z,10.76
2023-01-13T01:45:27.752Z,10.83
2023-01-13T01:45:39.651Z,10.84
2023-01-13T01:45:52.551Z,10.78
2023-01-13T01:46:05.028Z,10.75
2023-01-13T01:46:17.322Z,10.80
2023-01-13T01:46:38.258Z,10.84
2023-01-13T01:46:50.383Z,10.82
2023-01-13T01:47:02.509Z,10.85
2023-01-13T01:47:19.732Z,10.84
2023-01-13T01:47:32.524Z,10.85
2023-01-13T01:47:48.205Z,10.86
2023-01-13T01:48:04.338Z,10.83
2023-01-13T01:48:16.281Z,10.85
2023-01-13T01:48:37.045Z,10.82
2023-01-13T01:48:49.018Z,10.99
2023-01-13T01:49:20.613Z,11.03
2023-01-13T01:49:35.208Z,11.04
2023-01-13T01:49:48.148Z,11.01
2023-01-13T01:50:02.049Z,11.00
2023-01-13T01:50:14.721Z,10.97
2023-01-13T01:50:28.218Z,10.97
2023-01-13T01:50:40.813Z,10.95
2023-01-13T01:50:53.169Z,10.98
2023-01-13T01:51:08.717Z,10.98
2023-01-13T01:51:21.434Z,10.94
2023-01-13T01:51:38.954Z,10.93
2023-01-13T01:51:56.558Z,10.90
2023-01-13T01:52:29.979Z,10.97
2023-01-13T01:52:47.372Z,10.95
2023-01-13T01:53:10.922Z,10.98
2023-01-13T01:53:25.762Z,10.86
2023-01-13T01:53:39.208Z,10.87
2023-01-13T01:53:52.681Z,10.86
2023-01-13T01:54:09.153Z,10.89
2023-01-13T01:54:35.555Z,10.91
2023-01-13T01:54:54.741Z,10.95
2023-01-13T01:55:30.303Z,11.03
2023-01-13T01:55:42.420Z,11.04
2023-01-13T01:55:56.097Z,11.01
2023-01-13T01:56:10.332Z,10.94
2023-01-13T01:56:22.365Z,10.94
2023-01-13T01:56:35.789Z,10.92
2023-01-13T01:56:48.419Z,10.87
2023-01-13T01:57:00.515Z,10.78
2023-01-13T01:57:18.103Z,10.79
2023-01-13T01:57:48.529Z,10.79
2023-01-13T01:58:18.478Z,10.68
2023-01-13T01:58:40.398Z,10.66
2023-01-13T01:58:54.083Z,10.57
2023-01-13T01:59:09.009Z,10.56
2023-01-13T01:59:20.991Z,10.54
2023-01-13T01:59:36.437Z,10.45
2023-01-13T01:59:49.089Z,10.48
2023-01-13T02:00:01.813Z,10.45
2023-01-13T02:00:14.844Z,10.48
2023-01-13T02:00:28.344Z,10.48
2023-01-13T02:00:40.706Z,10.41
2023-01-13T02:00:55.780Z,10.34
2023-01-13T02:01:08.714Z,10.35
2023-01-13T02:01:20.976Z,10.37
2023-01-13T02:01:34.264Z,10.36
2023-01-13T02:01:46.372Z,10.42
2023-01-13T02:01:58.637Z,10.40
2023-01-13T02:02:11.257Z,10.45
2023-01-13T02:02:23.393Z,10.51
2023-01-13T02:02:36.387Z,10.48
2023-01-13T02:02:51.314Z,10.48
2023-01-13T02:03:05.390Z,10.41
2023-01-13T02:03:18.407Z,10.34
2023-01-13T02:03:30.481Z,10.31
2023-01-13T02:03:52.447Z,10.41
2023-01-13T02:04:16.879Z,10.48
2023-01-13T02:04:33.788Z,10.46
2023-01-13T02:04:51.002Z,10.45
2023-01-13T02:05:03.375Z,10.46
2023-01-13T02:05:15.545Z,10.46
2023-01-13T02:05:29.653Z,10.45
2023-01-13T02:05:42.113Z,10.49
2023-01-13T02:05:54.089Z,10.49
2023-01-13T02:06:06.558Z,10.48
2023-01-13T02:06:18.932Z,10.46
2023-01-13T02:06:31.202Z,10.44
2023-01-13T02:06:45.772Z,10.44
2023-01-13T02:07:01.316Z,10.45
2023-01-13T02:07:13.226Z,10.47
2023-01-13T02:07:28.646Z,10.60
2023-01-13T02:07:43.005Z,10.55
2023-01-13T02:07:57.627Z,10.53
2023-01-13T02:08:13.128Z,10.58
2023-01-13T02:08:26.019Z,10.56
2023-01-13T02:08:40.139Z,10.60
2023-01-13T02:08:52.180Z,10.67
2023-01-13T02:09:04.144Z,10.67
2023-01-13T02:09:17.442Z,10.63
2023-01-13T02:09:30.285Z,10.64
2023-01-13T02:09:42.274Z,10.65
2023-01-13T02:09:56.312Z,10.57
2023-01-13T02:10:11.803Z,10.54
2023-01-13T02:10:27.583Z,10.56
2023-01-13T02:10:41.336Z,10.58
2023-01-13T02:10:53.815Z,10.54
2023-01-13T02:11:26.419Z,10.58
2023-01-13T02:11:56.735Z,10.57
2023-01-13T02:12:27.724Z,10.59
2023-01-13T02:12:42.635Z,10.56
2023-01-13T02:12:58.872Z,10.56
2023-01-13T02:13:13.101Z,10.55
2023-01-13T02:13:25.044Z,10.57
2023-01-13T02:13:36.970Z,10.57
2023-01-13T02:13:51.082Z,10.54
2023-01-13T02:14:03.017Z,10.53
2023-01-13T02:14:15.348Z,10.55
2023-01-13T02:14:29.842Z,10.58
2023-01-13T02:14:42.402Z,10.62
2023-01-13T02:14:57.792Z,10.65
2023-01-13T02:15:11.946Z,10.61
2023-01-13T02:15:38.310Z,10.67
2023-01-13T02:16:13.056Z,10.83
2023-01-13T02:16:25.081Z,10.87
2023-01-13T02:16:39.199Z,10.82
2023-01-13T02:17:16.340Z,10.87
2023-01-13T02:17:43.079Z,10.88
2023-01-13T02:18:18.856Z,10.94
2023-01-13T02:18:43.626Z,11.04
2023-01-13T02:19:23.195Z,11.02
2023-01-13T02:19:53.024Z,11.04
2023-01-13T02:20:25.803Z,11.02
2023-01-13T02:20:43.552Z,11.01
2023-01-13T02:21:17.023Z,10.90
2023-01-13T02:21:48.061Z,10.95
2023-01-13T02:22:13.031Z,11.01
2023-01-13T02:22:27.728Z,11.00
2023-01-13T02:22:46.053Z,11.00
2023-01-13T02:23:00.852Z,11.02
2023-01-13T02:23:51.167Z,11.06
2023-01-13T02:24:37.842Z,11.02
2023-01-13T02:25:10.826Z,11.06
2023-01-13T02:26:00.045Z,11.26
2023-01-13T02:26:39.678Z,11.22
2023-01-13T02:27:21.919Z,11.20
2023-01-13T02:27:50.945Z,11.18
2023-01-13T02:28:12.292Z,11.19
2023-01-13T02:28:36.214Z,11.25
2023-01-13T02:29:41.526Z,11.26
2023-01-13T02:30:21.586Z,11.35
2023-01-13T02:30:59.253Z,11.38
2023-01-13T02:31:34.166Z,11.38
2023-01-13T02:31:49.409Z,11.31
2023-01-13T02:32:35.678Z,11.30
2023-01-13T02:33:28.045Z,11.25
2023-01-13T02:34:01.591Z,11.24
2023-01-13T02:34:25.120Z,11.12
2023-01-13T02:34:42.879Z,11.24
2023-01-13T02:35:37.748Z,11.24
2023-01-13T02:36:02.571Z,11.23
2023-01-13T02:36:29.805Z,11.21
2023-01-13T02:36:47.553Z,11.20
2023-01-13T02:37:07.649Z,11.20
2023-01-13T02:37:29.836Z,11.19
2023-01-13T02:37:43.981Z,11.16
2023-01-13T02:37:59.592Z,11.18
2023-01-13T02:38:13.831Z,11.28
2023-01-13T02:38:34.584Z,11.33
2023-01-13T02:38:52.213Z,11.34
2023-01-13T02:39:16.965Z,11.40
2023-01-13T02:39:37.098Z,11.42
2023-01-13T02:39:59.480Z,11.49
2023-01-13T02:40:31.522Z,11.50
2023-01-13T02:40:58.436Z,11.38
2023-01-13T02:41:40.447Z,11.42
2023-01-13T02:42:32.719Z,11.30
2023-01-13T02:43:15.429Z,11.36
2023-01-13T02:43:54.987Z,11.36
2023-01-13T02:44:10.533Z,11.43
2023-01-13T02:44:32.447Z,11.35
2023-01-13T02:44:49.774Z,11.35
2023-01-13T02:45:09.810Z,11.31
2023-01-13T02:45:30.655Z,11.27
2023-01-13T02:46:01.686Z,11.26
2023-01-13T02:46:29.944Z,11.27
2023-01-13T02:46:59.349Z,11.30
2023-01-13T02:47:22.659Z,11.38
2023-01-13T02:47:39.292Z,11.40
2023-01-13T02:47:55.758Z,11.37
2023-01-13T02:48:10.829Z,11.36
2023-01-13T02:48:25.299Z,11.30
2023-01-13T02:48:39.657Z,11.33
2023-01-13T02:48:54.681Z,11.27
2023-01-13T02:49:13.792Z,11.32
2023-01-13T02:49:37.677Z,11.30
2023-01-13T02:49:55.803Z,11.34
2023-01-13T02:50:21.342Z,11.32
2023-01-13T02:50:40.931Z,11.31
2023-01-13T02:51:09.706Z,11.31
2023-01-13T02:51:26.800Z,11.35
2023-01-13T02:51:40.935Z,11.46
2023-01-13T02:52:00.078Z,11.50
2023-01-13T02:52:25.437Z,11.47
2023-01-13T02:52:45.724Z,11.55
2023-01-13T02:53:07.588Z,11.58
2023-01-13T02:53:29.215Z,11.51
2023-01-13T02:53:44.024Z,11.46
2023-01-13T02:54:04.649Z,11.40
2023-01-13T02:54:22.485Z,11.37
2023-01-13T02:54:37.283Z,11.41
2023-01-13T02:54:55.291Z,11.35
2023-01-13T02:55:50.783Z,11.36
2023-01-13T02:56:06.325Z,11.34
2023-01-13T02:56:20.814Z,11.32
2023-01-13T02:56:37.316Z,11.30
2023-01-13T02:56:51.092Z,11.27
2023-01-13T02:57:06.549Z,11.29
2023-01-13T02:57:20.792Z,11.30
2023-01-13T02:57:35.579Z,11.26
2023-01-13T02:57:48.541Z,11.27
2023-01-13T02:58:04.145Z,11.27
2023-01-13T02:58:21.109Z,11.27
2023-01-13T02:58:36.195Z,11.24
2023-01-13T02:58:49.046Z,11.24
2023-01-13T02:59:02.180Z,11.24
2023-01-13T02:59:14.363Z,11.25
2023-01-13T02:59:27.817Z,11.20
2023-01-13T02:59:41.388Z,11.34
2023-01-13T02:59:55.557Z,11.34
2023-01-13T03:00:10.519Z,11.32
2023-01-13T03:00:23.384Z,11.27
2023-01-13T03:00:37.439Z,11.28
2023-01-13T03:00:50.072Z,11.29
2023-01-13T03:01:04.849Z,11.38
2023-01-13T03:01:17.903Z,11.41
2023-01-13T03:01:29.974Z,11.39
2023-01-13T03:01:45.194Z,11.40
2023-01-13T03:02:00.135Z,11.39
2023-01-13T03:02:16.546Z,11.33
2023-01-13T03:02:28.807Z,11.40
2023-01-13T03:02:40.820Z,11.46
2023-01-13T03:02:52.918Z,11.43
2023-01-13T03:03:04.937Z,11.44
2023-01-13T03:03:16.891Z,11.47
2023-01-13T03:03:29.048Z,11.42
2023-01-13T03:03:40.995Z,11.41
2023-01-13T03:03:53.016Z,11.37
2023-01-13T03:04:15.695Z,11.37
2023-01-13T03:04:49.181Z,11.30
2023-01-13T03:05:03.349Z,11.23
2023-01-13T03:05:16.814Z,11.32
2023-01-13T03:05:31.968Z,11.26
2023-01-13T03:05:46.333Z,11.30
2023-01-13T03:06:18.321Z,11.42
2023-01-13T03:07:00.724Z,11.43
2023-01-13T03:07:19.502Z,11.33
2023-01-13T03:07:53.495Z,11.36
2023-01-13T03:08:22.269Z,11.36
2023-01-13T03:08:57.460Z,11.27
2023-01-13T03:09:22.769Z,11.27
2023-01-13T03:09:42.950Z,11.34
2023-01-13T03:10:16.256Z,11.47
2023-01-13T03:10:37.224Z,11.48
2023-01-13T03:11:08.657Z,11.35
2023-01-13T03:11:21.736Z,11.25
2023-01-13T03:11:46.943Z,11.24
2023-01-13T03:12:11.841Z,11.21
2023-01-13T03:12:37.772Z,11.19
2023-01-13T03:12:59.806Z,11.22
2023-01-13T03:13:22.502Z,11.23
2023-01-13T03:14:17.979Z,11.25
2023-01-13T03:14:48.549Z,11.32
2023-01-13T03:15:24.394Z,11.43
2023-01-13T03:15:45.301Z,11.36
2023-01-13T03:16:03.878Z,11.37
2023-01-13T03:16:31.702Z,11.42
2023-01-13T03:17:17.246Z,11.31
2023-01-13T03:17:51.700Z,11.15
2023-01-13T03:18:12.487Z,11.28
2023-01-13T03:18:58.242Z,11.27
2023-01-13T03:19:18.763Z,11.25
2023-01-13T03:20:06.823Z,11.37
2023-01-13T03:20:25.741Z,11.33
2023-01-13T03:20:47.681Z,11.22
2023-01-13T03:21:05.054Z,11.25
2023-01-13T03:21:34.391Z,11.24
2023-01-13T03:22:02.389Z,11.32
2023-01-13T03:22:23.051Z,11.33
2023-01-13T03:22:44.946Z,11.31
2023-01-13T03:23:13.476Z,11.22
2023-01-13T03:23:33.597Z,11.22
2023-01-13T03:24:09.259Z,11.14
2023-01-13T03:24:28.315Z,11.24
2023-01-13T03:24:50.185Z,11.31
2023-01-13T03:25:11.696Z,11.39
2023-01-13T03:25:32.057Z,11.42
2023-01-13T03:26:14.002Z,11.41
2023-01-13T03:26:42.431Z,11.30
2023-01-13T03:27:39.305Z,11.26
2023-01-13T03:28:11.989Z,11.31
2023-01-13T03:28:30.949Z,11.31
2023-01-13T03:28:49.135Z,11.33
2023-01-13T03:29:18.095Z,11.30
2023-01-13T03:29:34.545Z,11.30
2023-01-13T03:29:53.945Z,11.34
2023-01-13T03:30:23.772Z,11.37
2023-01-13T03:30:51.460Z,11.35
2023-01-13T03:31:09.990Z,11.36
2023-01-13T03:31:30.339Z,11.34
2023-01-13T03:31:55.450Z,11.22
2023-01-13T03:32:20.261Z,11.22
2023-01-13T03:32:39.592Z,11.14